Wanblee, South Dakota
Current Conditions -  °F | °C
As of 2:55 AM on Saturday 25 Oct 2014 (Local Time) from KPHP Reporting Station
Clear Clear  
Wind Chill: 32°   Ceiling: Unl
Heat Index: 37°   Visibility: 10mi
Dew Point: 32°   Wind: 6mph
Humidity: 82%   Direction: 270°W
Pressure: 30.14"   Gusts: NA
Location:  43.57°N, 101.66°W
Report Text: KPHP 250855Z AUTO 27005KT 10SM CLR 03/00 A3014 RMK AO2 SLP201 T00280000 51010
Loading
Personal Weather Stations






























Interactive Weather Map
Tropical Storm Tracking
New forecast layout! Learn more

10-Day Weather Forecast

Advertisements
Track Severe Weather on mobile